createdAt,value
2018-05-23T00:00:16.142Z,19.15
2018-05-23T00:01:16.130Z,19.15
2018-05-23T00:02:16.120Z,19.22
2018-05-23T00:03:16.102Z,19.15
2018-05-23T00:04:16.098Z,19.16
2018-05-23T00:05:16.077Z,19.09
2018-05-23T00:06:16.064Z,19.16
2018-05-23T00:07:16.050Z,19.22
2018-05-23T00:08:16.037Z,19.19
2018-05-23T00:09:16.031Z,19.15
2018-05-23T00:10:16.012Z,19.09
2018-05-23T00:11:15.995Z,19.08
2018-05-23T00:12:15.986Z,19.11
2018-05-23T00:13:15.972Z,19.15
2018-05-23T00:14:15.960Z,19.00
2018-05-23T00:15:15.944Z,18.98
2018-05-23T00:16:15.932Z,19.12
2018-05-23T00:17:15.920Z,19.16
2018-05-23T00:18:15.908Z,19.07
2018-05-23T00:19:15.892Z,19.07
2018-05-23T00:20:15.881Z,19.09
2018-05-23T00:21:15.867Z,19.12
2018-05-23T00:22:15.854Z,19.01
2018-05-23T00:23:15.842Z,18.98
2018-05-23T00:24:15.833Z,19.08
2018-05-23T00:25:15.816Z,18.97
2018-05-23T00:26:15.806Z,19.04
2018-05-23T00:27:15.787Z,19.04
2018-05-23T00:28:15.787Z,19.15
2018-05-23T00:29:15.768Z,19.16
2018-05-23T00:30:15.753Z,19.17
2018-05-23T00:31:15.744Z,19.17
2018-05-23T00:32:15.724Z,19.15
2018-05-23T00:33:15.710Z,19.04
2018-05-23T00:34:15.749Z,19.09
2018-05-23T00:35:15.684Z,19.12
2018-05-23T00:36:15.688Z,19.09
2018-05-23T00:37:15.658Z,19.05
2018-05-23T00:38:15.646Z,19.05
2018-05-23T00:39:15.631Z,19.08
2018-05-23T00:40:15.619Z,18.97
2018-05-23T00:41:15.606Z,19.00
2018-05-23T00:42:15.594Z,18.98
2018-05-23T00:43:15.578Z,18.96
2018-05-23T00:44:15.566Z,18.98
2018-05-23T00:45:15.553Z,19.05
2018-05-23T00:46:15.557Z,19.01
2018-05-23T00:47:15.532Z,19.00
2018-05-23T00:48:15.515Z,19.04
2018-05-23T00:49:15.502Z,18.96
2018-05-23T00:50:15.595Z,19.00
2018-05-23T00:51:15.483Z,19.04
2018-05-23T00:52:15.464Z,18.96
2018-05-23T00:53:15.449Z,18.91
2018-05-23T00:54:15.440Z,18.91
2018-05-23T00:55:15.424Z,18.88
2018-05-23T00:56:15.414Z,18.83
2018-05-23T00:57:15.397Z,18.94
2018-05-23T00:58:15.386Z,18.89
2018-05-23T00:59:15.373Z,18.86
2018-05-23T01:00:15.357Z,18.89
2018-05-23T01:01:15.343Z,18.92
2018-05-23T01:02:15.333Z,18.85
2018-05-23T01:03:15.320Z,18.88
2018-05-23T01:04:15.308Z,18.89
2018-05-23T01:05:15.292Z,18.94
2018-05-23T01:06:15.335Z,18.85
2018-05-23T01:07:15.263Z,18.85
2018-05-23T01:08:15.271Z,18.88
2018-05-23T01:09:15.247Z,18.88
2018-05-23T01:10:15.227Z,18.92
2018-05-23T01:11:15.211Z,18.86
2018-05-23T01:12:15.208Z,18.92
2018-05-23T01:13:15.186Z,18.88
2018-05-23T01:14:15.175Z,18.86
2018-05-23T01:15:15.161Z,18.92
2018-05-23T01:16:15.151Z,18.92
2018-05-23T01:17:15.132Z,18.81
2018-05-23T01:18:15.119Z,18.81
2018-05-23T01:19:15.106Z,18.79
2018-05-23T01:20:15.093Z,18.78
2018-05-23T01:21:15.081Z,18.71
2018-05-23T01:22:15.068Z,18.71
2018-05-23T01:23:15.052Z,18.79
2018-05-23T01:24:15.042Z,18.64
2018-05-23T01:25:15.029Z,18.82
2018-05-23T01:26:15.016Z,18.78
2018-05-23T01:27:15.000Z,18.86
2018-05-23T01:28:14.993Z,18.88
2018-05-23T01:29:14.976Z,18.82
2018-05-23T01:30:14.962Z,18.79
2018-05-23T01:31:14.948Z,18.79
2018-05-23T01:32:14.933Z,18.86
2018-05-23T01:33:14.921Z,18.82
2018-05-23T01:34:14.907Z,18.86
2018-05-23T01:35:14.893Z,18.81
2018-05-23T01:36:14.881Z,18.88
2018-05-23T01:37:14.868Z,18.83
2018-05-23T01:38:14.856Z,18.79
2018-05-23T01:39:14.849Z,18.81
2018-05-23T01:40:14.832Z,18.74
2018-05-23T01:41:14.814Z,18.79
2018-05-23T01:42:14.802Z,18.86
2018-05-23T01:43:14.786Z,18.79
2018-05-23T01:44:14.774Z,18.83
2018-05-23T01:45:14.764Z,18.76
2018-05-23T01:46:14.893Z,18.74
2018-05-23T01:47:14.747Z,18.78
2018-05-23T01:48:14.720Z,18.81
2018-05-23T01:49:14.760Z,18.79
2018-05-23T01:50:14.695Z,18.86
2018-05-23T01:51:14.681Z,18.76
2018-05-23T01:52:14.672Z,18.88
2018-05-23T01:53:14.655Z,18.85
2018-05-23T01:54:14.644Z,18.79
2018-05-23T01:55:14.629Z,18.78
2018-05-23T01:56:14.615Z,18.79
2018-05-23T01:57:14.602Z,18.85
2018-05-23T01:58:14.598Z,18.81
2018-05-23T01:59:14.576Z,18.76
2018-05-23T02:00:14.566Z,18.85
2018-05-23T02:01:14.550Z,18.71
2018-05-23T02:02:14.538Z,18.73
2018-05-23T02:03:14.522Z,18.74
2018-05-23T02:04:14.509Z,18.76
2018-05-23T02:05:14.504Z,18.74
2018-05-23T02:06:14.489Z,18.79
2018-05-23T02:07:14.469Z,18.79
2018-05-23T02:08:14.464Z,18.63
2018-05-23T02:09:14.444Z,18.55
2018-05-23T02:10:14.503Z,18.61
2018-05-23T02:11:14.425Z,18.58
2018-05-23T02:12:14.412Z,18.67
2018-05-23T02:13:14.392Z,18.74
2018-05-23T02:14:14.385Z,18.64
2018-05-23T02:15:14.361Z,18.63
2018-05-23T02:16:14.354Z,18.60
2018-05-23T02:17:14.347Z,18.63
2018-05-23T02:18:14.331Z,18.60
2018-05-23T02:19:14.309Z,18.70
2018-05-23T02:20:14.295Z,18.61
2018-05-23T02:21:14.283Z,18.64
2018-05-23T02:22:14.270Z,18.53
2018-05-23T02:23:14.258Z,18.57
2018-05-23T02:24:14.243Z,18.57
2018-05-23T02:25:14.230Z,18.64
2018-05-23T02:26:14.222Z,18.51
2018-05-23T02:27:14.204Z,18.53
2018-05-23T02:28:14.190Z,18.55
2018-05-23T02:29:14.184Z,18.53
2018-05-23T02:30:14.169Z,18.57
2018-05-23T02:31:14.149Z,18.63
2018-05-23T02:32:14.144Z,18.55
2018-05-23T02:33:14.123Z,18.46
2018-05-23T02:34:14.112Z,18.49
2018-05-23T02:35:14.100Z,18.51
2018-05-23T02:36:14.090Z,18.52
2018-05-23T02:37:14.082Z,18.46
2018-05-23T02:38:14.056Z,18.34
2018-05-23T02:39:14.042Z,18.24
2018-05-23T02:40:14.028Z,18.28
2018-05-23T02:41:14.016Z,18.24
2018-05-23T02:42:14.003Z,18.24
2018-05-23T02:43:13.986Z,18.26
2018-05-23T02:44:13.975Z,18.36
2018-05-23T02:45:13.963Z,18.39
2018-05-23T02:46:13.951Z,18.42
2018-05-23T02:47:14.097Z,18.37
2018-05-23T02:48:13.930Z,18.28
2018-05-23T02:49:13.908Z,18.41
2018-05-23T02:50:13.895Z,18.49
2018-05-23T02:51:13.880Z,18.43
2018-05-23T02:52:13.877Z,18.46
2018-05-23T02:53:13.854Z,18.55
2018-05-23T02:54:13.845Z,18.41
2018-05-23T02:55:13.829Z,18.43
2018-05-23T02:56:13.814Z,18.31
2018-05-23T02:57:13.800Z,18.39
2018-05-23T02:58:13.788Z,18.43
2018-05-23T02:59:13.772Z,18.28
2018-05-23T03:00:13.766Z,18.31
2018-05-23T03:01:13.747Z,18.43
2018-05-23T03:02:13.734Z,18.41
2018-05-23T03:03:13.719Z,18.33
2018-05-23T03:04:13.707Z,18.46
2018-05-23T03:05:13.692Z,18.43
2018-05-23T03:06:13.683Z,18.36
2018-05-23T03:07:13.677Z,18.42
2018-05-23T03:08:13.650Z,18.43
2018-05-23T03:09:13.648Z,18.42
2018-05-23T03:10:13.624Z,18.34
2018-05-23T03:11:13.610Z,18.43
2018-05-23T03:12:13.597Z,18.39
2018-05-23T03:13:13.584Z,18.39
2018-05-23T03:14:13.571Z,18.42
2018-05-23T03:15:13.555Z,18.27
2018-05-23T03:16:13.542Z,18.45
2018-05-23T03:17:13.529Z,18.42
2018-05-23T03:18:13.516Z,18.33
2018-05-23T03:19:13.509Z,18.26
2018-05-23T03:20:13.489Z,18.33
2018-05-23T03:21:13.474Z,18.34
2018-05-23T03:22:13.482Z,18.30
2018-05-23T03:23:13.448Z,18.30
2018-05-23T03:24:13.433Z,18.27
2018-05-23T03:25:13.423Z,18.28
2018-05-23T03:26:13.408Z,18.27
2018-05-23T03:27:13.401Z,18.30
2018-05-23T03:28:13.382Z,18.31
2018-05-23T03:29:13.367Z,18.13
2018-05-23T03:30:13.353Z,18.26
2018-05-23T03:31:13.339Z,18.30
2018-05-23T03:32:13.330Z,18.26
2018-05-23T03:33:13.319Z,18.24
2018-05-23T03:34:13.300Z,18.23
2018-05-23T03:35:13.284Z,18.31
2018-05-23T03:36:13.272Z,18.23
2018-05-23T03:37:13.257Z,18.24
2018-05-23T03:38:13.244Z,18.30
2018-05-23T03:39:13.230Z,18.33
2018-05-23T03:40:13.219Z,18.31
2018-05-23T03:41:13.205Z,18.27
2018-05-23T03:42:13.200Z,18.26
2018-05-23T03:43:13.184Z,18.30
2018-05-23T03:44:13.170Z,18.33
2018-05-23T03:45:13.149Z,18.18
2018-05-23T03:46:13.135Z,18.24
2018-05-23T03:47:13.122Z,18.21
2018-05-23T03:48:13.111Z,18.24
2018-05-23T03:49:13.095Z,18.23
2018-05-23T03:50:13.081Z,18.24
2018-05-23T03:51:13.067Z,18.31
2018-05-23T03:52:13.055Z,18.24
2018-05-23T03:53:13.047Z,18.27
2018-05-23T03:54:13.027Z,18.41
2018-05-23T03:55:13.084Z,18.39
2018-05-23T03:56:12.999Z,18.34
2018-05-23T03:57:13.087Z,18.41
2018-05-23T03:58:12.973Z,18.45
2018-05-23T03:59:12.966Z,18.37
2018-05-23T04:00:12.945Z,18.43
2018-05-23T04:01:12.931Z,18.36
2018-05-23T04:02:12.917Z,18.43
2018-05-23T04:03:12.905Z,18.42
2018-05-23T04:04:12.913Z,18.43
2018-05-23T04:05:12.878Z,18.37
2018-05-23T04:06:12.863Z,18.34
2018-05-23T04:07:12.851Z,18.42
2018-05-23T04:08:12.836Z,18.42
2018-05-23T04:09:12.823Z,18.41
2018-05-23T04:10:12.820Z,18.45
2018-05-23T04:11:12.802Z,18.42
2018-05-23T04:12:12.780Z,18.37
2018-05-23T04:13:12.777Z,18.42
2018-05-23T04:14:12.755Z,18.42
2018-05-23T04:15:12.739Z,18.41
2018-05-23T04:16:12.733Z,18.39
2018-05-23T04:17:12.721Z,18.28
2018-05-23T04:18:12.700Z,18.26
2018-05-23T04:19:12.691Z,18.42
2018-05-23T04:20:12.681Z,18.37
2018-05-23T04:21:12.663Z,18.39
2018-05-23T04:22:12.648Z,18.42
2018-05-23T04:23:12.635Z,18.21
2018-05-23T04:24:12.620Z,18.28
2018-05-23T04:25:12.604Z,18.30
2018-05-23T04:26:12.591Z,18.37
2018-05-23T04:27:12.580Z,18.46
2018-05-23T04:28:12.566Z,18.46
2018-05-23T04:29:12.561Z,18.58
2018-05-23T04:30:12.539Z,18.57
2018-05-23T04:31:12.532Z,18.53
2018-05-23T04:32:12.509Z,18.55
2018-05-23T04:33:12.501Z,18.61
2018-05-23T04:34:12.534Z,18.64
2018-05-23T04:35:12.473Z,18.66
2018-05-23T04:36:12.456Z,18.67
2018-05-23T04:37:12.450Z,18.73
2018-05-23T04:38:12.435Z,18.81
2018-05-23T04:39:12.446Z,18.78
2018-05-23T04:40:12.407Z,18.76
2018-05-23T04:41:12.400Z,18.78
2018-05-23T04:42:12.378Z,18.79
2018-05-23T04:43:12.371Z,18.76
2018-05-23T04:44:12.358Z,18.81
2018-05-23T04:45:12.337Z,18.74
2018-05-23T04:46:12.322Z,18.81
2018-05-23T04:47:12.309Z,18.86
2018-05-23T04:48:12.299Z,18.83
2018-05-23T04:49:12.284Z,18.83
2018-05-23T04:50:12.421Z,18.88
2018-05-23T04:51:12.261Z,18.82
2018-05-23T04:52:12.247Z,18.88
2018-05-23T04:53:12.229Z,18.94
2018-05-23T04:54:12.215Z,18.85
2018-05-23T04:55:12.201Z,18.82
2018-05-23T04:56:12.196Z,18.88
2018-05-23T04:57:12.177Z,18.89
2018-05-23T04:58:12.164Z,18.89
2018-05-23T04:59:12.151Z,18.86
2018-05-23T05:00:12.136Z,18.86
2018-05-23T05:01:12.123Z,18.92
2018-05-23T05:02:12.110Z,18.89
2018-05-23T05:03:12.104Z,18.92
2018-05-23T05:04:12.083Z,19.00
2018-05-23T05:05:12.079Z,18.91
2018-05-23T05:06:12.160Z,18.98
2018-05-23T05:07:12.044Z,19.01
2018-05-23T05:08:12.030Z,19.00
2018-05-23T05:09:12.017Z,19.05
2018-05-23T05:10:12.004Z,19.17
2018-05-23T05:11:11.990Z,19.12
2018-05-23T05:12:11.977Z,19.11
2018-05-23T05:13:11.972Z,19.16
2018-05-23T05:14:11.952Z,19.22
2018-05-23T05:15:11.939Z,19.27
2018-05-23T05:16:11.926Z,19.16
2018-05-23T05:17:11.913Z,19.08
2018-05-23T05:18:11.900Z,19.16
2018-05-23T05:19:11.886Z,19.16
2018-05-23T05:20:11.872Z,19.17
2018-05-23T05:21:11.859Z,19.19
2018-05-23T05:22:11.846Z,19.20
2018-05-23T05:23:11.839Z,19.20
2018-05-23T05:24:11.822Z,19.26
2018-05-23T05:25:11.806Z,19.24
2018-05-23T05:26:11.793Z,19.29
2018-05-23T05:27:11.781Z,19.32
2018-05-23T05:28:11.772Z,19.30
2018-05-23T05:29:11.757Z,19.34
2018-05-23T05:30:11.744Z,19.38
2018-05-23T05:31:11.730Z,19.29
2018-05-23T05:32:11.723Z,19.39
2018-05-23T05:33:11.706Z,19.42
2018-05-23T05:34:11.698Z,19.48
2018-05-23T05:35:11.687Z,19.60
2018-05-23T05:36:11.676Z,19.67
2018-05-23T05:37:11.653Z,19.63
2018-05-23T05:38:11.639Z,19.78
2018-05-23T05:39:11.643Z,19.77
2018-05-23T05:40:11.692Z,19.79
2018-05-23T05:41:11.602Z,19.93
2018-05-23T05:42:11.594Z,19.96
2018-05-23T05:43:11.579Z,19.90
2018-05-23T05:44:11.564Z,20.03
2018-05-23T05:45:11.552Z,20.10
2018-05-23T05:46:11.539Z,20.08
2018-05-23T05:47:11.525Z,20.21
2018-05-23T05:48:11.512Z,20.21
2018-05-23T05:49:11.501Z,20.24
2018-05-23T05:50:11.499Z,20.18
2018-05-23T05:51:11.474Z,20.18
2018-05-23T05:52:11.463Z,20.14
2018-05-23T05:53:11.450Z,20.11
2018-05-23T05:54:11.438Z,20.11
2018-05-23T05:55:11.426Z,20.17
2018-05-23T05:56:11.417Z,20.11
2018-05-23T05:57:11.405Z,20.14
2018-05-23T05:58:11.387Z,20.07
2018-05-23T05:59:11.376Z,20.07
2018-05-23T06:00:11.372Z,20.10
2018-05-23T06:01:11.355Z,20.00
2018-05-23T06:02:11.340Z,20.08
2018-05-23T06:03:11.329Z,20.07
2018-05-23T06:04:11.324Z,20.08
2018-05-23T06:05:11.304Z,20.15
2018-05-23T06:06:11.291Z,20.22
2018-05-23T06:07:11.285Z,20.30
2018-05-23T06:08:11.270Z,20.33
2018-05-23T06:09:11.315Z,20.33
2018-05-23T06:10:11.242Z,20.36
2018-05-23T06:11:11.231Z,20.40
2018-05-23T06:12:11.218Z,20.48
2018-05-23T06:13:11.221Z,20.44
2018-05-23T06:14:11.193Z,20.56
2018-05-23T06:15:11.188Z,20.55
2018-05-23T06:16:11.170Z,20.73
2018-05-23T06:17:11.157Z,20.77
2018-05-23T06:18:11.150Z,20.80
2018-05-23T06:19:11.132Z,20.88
2018-05-23T06:20:11.121Z,20.92
2018-05-23T06:21:11.110Z,20.93
2018-05-23T06:22:11.099Z,20.96
2018-05-23T06:23:11.097Z,21.00
2018-05-23T06:24:11.079Z,21.15
2018-05-23T06:25:11.089Z,21.08
2018-05-23T06:26:11.058Z,21.25
2018-05-23T06:27:11.038Z,21.30
2018-05-23T06:28:11.035Z,21.45
2018-05-23T06:29:11.016Z,21.43
2018-05-23T06:30:11.158Z,21.53
2018-05-23T06:31:10.994Z,21.44
2018-05-23T06:32:10.991Z,21.56
2018-05-23T06:33:10.973Z,21.66
2018-05-23T06:34:10.966Z,21.53
2018-05-23T06:35:10.958Z,21.63
2018-05-23T06:36:10.937Z,21.68
2018-05-23T06:37:10.926Z,21.62
2018-05-23T06:38:10.918Z,21.63
2018-05-23T06:39:10.902Z,21.63
2018-05-23T06:40:10.892Z,21.77
2018-05-23T06:41:10.881Z,21.80
2018-05-23T06:42:10.876Z,21.89
2018-05-23T06:43:10.859Z,21.92
2018-05-23T06:44:10.848Z,21.96
2018-05-23T06:45:10.836Z,21.92
2018-05-23T06:46:10.827Z,21.92
2018-05-23T06:47:10.817Z,21.84
2018-05-23T06:48:10.804Z,21.80
2018-05-23T06:49:10.794Z,21.78
2018-05-23T06:50:10.812Z,21.75
2018-05-23T06:51:10.772Z,21.84
2018-05-23T06:52:10.762Z,21.96
2018-05-23T06:53:10.752Z,21.97
2018-05-23T06:54:10.741Z,22.10
2018-05-23T06:55:10.739Z,22.07
2018-05-23T06:56:10.725Z,22.18
2018-05-23T06:57:10.721Z,22.23
2018-05-23T06:58:10.707Z,21.99
2018-05-23T06:59:10.686Z,21.83
2018-05-23T07:00:10.677Z,21.74
2018-05-23T07:01:10.670Z,21.78
2018-05-23T07:02:10.656Z,21.81
2018-05-23T07:03:10.645Z,21.78
2018-05-23T07:04:10.635Z,21.89
2018-05-23T07:05:10.625Z,21.84
2018-05-23T07:06:10.618Z,21.85
2018-05-23T07:07:10.612Z,21.83
2018-05-23T07:08:10.595Z,21.78
2018-05-23T07:09:10.581Z,21.72
2018-05-23T07:10:10.571Z,21.69
2018-05-23T07:11:10.593Z,21.78
2018-05-23T07:12:10.559Z,21.80
2018-05-23T07:13:10.544Z,21.94
2018-05-23T07:14:10.532Z,21.99
2018-05-23T07:15:10.521Z,21.97
2018-05-23T07:16:10.506Z,22.06
2018-05-23T07:17:10.553Z,21.92
2018-05-23T07:18:10.574Z,21.85
2018-05-23T07:19:10.480Z,21.91
2018-05-23T07:20:10.473Z,22.03
2018-05-23T07:21:10.459Z,22.10
2018-05-23T07:22:10.449Z,21.84
2018-05-23T07:23:10.440Z,21.72
2018-05-23T07:24:10.435Z,21.66
2018-05-23T07:25:10.415Z,21.70
2018-05-23T07:26:10.408Z,21.74
2018-05-23T07:27:10.393Z,21.85
2018-05-23T07:28:10.384Z,21.89
2018-05-23T07:29:10.374Z,22.12
2018-05-23T07:30:10.374Z,22.12
2018-05-23T07:31:10.355Z,22.43
2018-05-23T07:32:10.345Z,22.44
2018-05-23T07:33:10.329Z,22.44
2018-05-23T07:34:10.320Z,22.34
2018-05-23T07:35:10.310Z,22.37
2018-05-23T07:36:10.304Z,22.58
2018-05-23T07:37:10.296Z,22.62
2018-05-23T07:38:10.280Z,22.59
2018-05-23T07:39:10.325Z,22.41
2018-05-23T07:40:10.269Z,22.41
2018-05-23T07:41:10.250Z,22.59
2018-05-23T07:42:10.239Z,22.65
2018-05-23T07:43:10.227Z,22.84
2018-05-23T07:44:10.216Z,22.92
2018-05-23T07:45:10.206Z,23.04
2018-05-23T07:46:10.196Z,23.08
2018-05-23T07:47:10.189Z,23.11
2018-05-23T07:48:10.176Z,23.26
2018-05-23T07:49:10.166Z,23.23
2018-05-23T07:50:10.164Z,23.16
2018-05-23T07:51:10.161Z,23.06
2018-05-23T07:52:10.137Z,23.13
2018-05-23T07:53:10.128Z,23.20
2018-05-23T07:54:10.119Z,23.36
2018-05-23T07:55:10.110Z,23.39
2018-05-23T07:56:10.101Z,23.52
2018-05-23T07:57:10.089Z,23.64
2018-05-23T07:58:10.083Z,23.94
2018-05-23T07:59:10.071Z,23.77
2018-05-23T08:00:10.071Z,23.99
2018-05-23T08:01:10.056Z,23.94
2018-05-23T08:02:10.044Z,24.01
2018-05-23T08:03:10.035Z,23.96
2018-05-23T08:04:10.031Z,23.94
2018-05-23T08:05:10.019Z,24.09
2018-05-23T08:06:10.012Z,24.18
2018-05-23T08:07:10.018Z,24.24
2018-05-23T08:08:09.989Z,24.07
2018-05-23T08:09:09.981Z,24.11
2018-05-23T08:10:09.977Z,24.24
2018-05-23T08:11:09.967Z,24.25
2018-05-23T08:12:09.953Z,24.32
2018-05-23T08:13:09.947Z,24.21
2018-05-23T08:14:09.937Z,24.29
2018-05-23T08:15:09.936Z,24.32
2018-05-23T08:16:09.920Z,24.53
2018-05-23T08:17:09.913Z,24.37
2018-05-23T08:18:09.986Z,24.41
2018-05-23T08:19:09.894Z,24.37
2018-05-23T08:20:09.893Z,24.36
2018-05-23T08:21:09.876Z,24.40
2018-05-23T08:22:09.872Z,24.55
2018-05-23T08:23:09.861Z,24.28
2018-05-23T08:24:09.849Z,24.16
2018-05-23T08:25:09.850Z,24.36
2018-05-23T08:26:09.898Z,24.38
2018-05-23T08:27:09.825Z,24.62
2018-05-23T08:28:09.815Z,24.38
2018-05-23T08:29:09.804Z,24.16
2018-05-23T08:30:09.797Z,24.19
2018-05-23T08:31:09.790Z,24.29
2018-05-23T08:32:09.782Z,24.28
2018-05-23T08:33:09.769Z,24.38
2018-05-23T08:34:09.761Z,24.34
2018-05-23T08:35:09.764Z,24.40
2018-05-23T08:36:09.750Z,24.48
2018-05-23T08:37:09.735Z,24.61
2018-05-23T08:38:09.724Z,24.93
2018-05-23T08:39:09.722Z,24.94
2018-05-23T08:40:09.704Z,25.03
2018-05-23T08:41:09.713Z,24.88
2018-05-23T08:42:09.693Z,24.96
2018-05-23T08:43:09.681Z,24.85
2018-05-23T08:44:09.673Z,24.96
2018-05-23T08:45:09.670Z,24.97
2018-05-23T08:46:09.688Z,24.66
2018-05-23T08:47:09.643Z,24.85
2018-05-23T08:48:09.645Z,24.68
2018-05-23T08:49:09.634Z,24.66
2018-05-23T08:50:09.618Z,24.68
2018-05-23T08:51:09.611Z,24.69
2018-05-23T08:52:09.648Z,24.62
2018-05-23T08:53:09.591Z,24.56
2018-05-23T08:54:09.590Z,24.62
2018-05-23T08:55:09.580Z,24.71
2018-05-23T08:56:09.575Z,24.62
2018-05-23T08:57:09.563Z,24.86
2018-05-23T08:58:09.549Z,24.84
2018-05-23T08:59:09.537Z,24.85
2018-05-23T09:00:09.536Z,24.81
2018-05-23T09:01:09.520Z,24.96
2018-05-23T09:02:09.522Z,24.85
2018-05-23T09:03:09.506Z,24.65
2018-05-23T09:04:09.494Z,24.63
2018-05-23T09:05:09.494Z,24.61
2018-05-23T09:06:09.499Z,24.37
2018-05-23T09:07:09.468Z,24.41
2018-05-23T09:08:09.459Z,24.56
2018-05-23T09:09:09.467Z,24.78
2018-05-23T09:10:09.441Z,24.88
2018-05-23T09:11:09.440Z,25.01
2018-05-23T09:12:09.477Z,24.93
2018-05-23T09:13:09.414Z,25.15
2018-05-23T09:14:09.409Z,25.06
2018-05-23T09:15:09.404Z,24.94
2018-05-23T09:16:09.390Z,24.85
2018-05-23T09:17:09.381Z,24.79
2018-05-23T09:18:09.380Z,24.86
2018-05-23T09:19:09.368Z,25.09
2018-05-23T09:20:09.362Z,24.69
2018-05-23T09:21:09.346Z,24.85
2018-05-23T09:22:09.337Z,24.89
2018-05-23T09:23:09.332Z,24.97
2018-05-23T09:24:09.325Z,25.06
2018-05-23T09:25:09.311Z,25.18
2018-05-23T09:26:09.301Z,25.29
2018-05-23T09:27:09.295Z,25.37
2018-05-23T09:28:09.285Z,25.37
2018-05-23T09:29:09.281Z,25.31
2018-05-23T09:30:09.269Z,25.33
2018-05-23T09:31:09.259Z,25.61
2018-05-23T09:32:09.277Z,25.78
2018-05-23T09:33:09.241Z,26.06
2018-05-23T09:34:09.233Z,25.76
2018-05-23T09:35:09.333Z,25.89
2018-05-23T09:36:09.225Z,26.03
2018-05-23T09:37:09.221Z,26.06
2018-05-23T09:38:09.211Z,26.10
2018-05-23T09:39:09.227Z,25.89
2018-05-23T09:40:09.190Z,25.54
2018-05-23T09:41:09.178Z,25.78
2018-05-23T09:42:09.171Z,26.04
2018-05-23T09:43:09.162Z,26.19
2018-05-23T09:44:09.155Z,26.39
2018-05-23T09:45:09.255Z,26.23
2018-05-23T09:46:09.141Z,26.08
2018-05-23T09:47:09.134Z,26.16
2018-05-23T09:48:09.138Z,26.22
2018-05-23T09:49:09.120Z,26.49
2018-05-23T09:50:09.114Z,26.70
2018-05-23T09:51:09.112Z,26.76
2018-05-23T09:52:09.106Z,26.83
2018-05-23T09:53:09.095Z,26.79
2018-05-23T09:54:09.085Z,27.13
2018-05-23T09:55:09.246Z,26.71
2018-05-23T09:56:09.072Z,26.67
2018-05-23T09:57:09.065Z,26.85
2018-05-23T09:58:09.058Z,26.67
2018-05-23T09:59:09.051Z,26.98
2018-05-23T10:00:09.045Z,26.83
2018-05-23T10:01:09.042Z,27.00
2018-05-23T10:02:09.033Z,26.92
2018-05-23T10:03:09.024Z,27.08
2018-05-23T10:04:09.022Z,27.25
2018-05-23T10:05:09.028Z,27.11
2018-05-23T10:06:09.008Z,26.60
2018-05-23T10:07:08.999Z,26.49
2018-05-23T10:08:08.995Z,26.78
2018-05-23T10:09:08.997Z,26.82
2018-05-23T10:10:08.982Z,26.92
2018-05-23T10:11:09.072Z,27.08
2018-05-23T10:12:09.127Z,27.01
2018-05-23T10:13:08.968Z,27.11
2018-05-23T10:14:08.960Z,27.20
2018-05-23T10:15:08.956Z,26.91
2018-05-23T10:16:08.964Z,26.92
2018-05-23T10:17:08.944Z,27.30
2018-05-23T10:18:08.939Z,27.81
2018-05-23T10:19:08.934Z,28.08
2018-05-23T10:20:08.928Z,27.94
2018-05-23T10:21:08.931Z,28.34
2018-05-23T10:22:08.919Z,28.71
2018-05-23T10:23:08.935Z,28.77
2018-05-23T10:24:08.911Z,28.62
2018-05-23T10:25:08.908Z,28.50
2018-05-23T10:26:08.904Z,28.16
2018-05-23T10:27:08.901Z,28.16
2018-05-23T10:28:08.896Z,27.53
2018-05-23T10:29:08.892Z,27.78
2018-05-23T10:30:08.894Z,28.12
2018-05-23T10:31:08.894Z,28.16
2018-05-23T10:32:08.887Z,28.31
2018-05-23T10:33:08.880Z,27.83
2018-05-23T10:34:08.877Z,28.22
2018-05-23T10:35:08.873Z,28.27
2018-05-23T10:36:08.874Z,28.08
2018-05-23T10:37:08.866Z,27.66
2018-05-23T10:38:08.871Z,27.48
2018-05-23T10:39:08.922Z,27.38
2018-05-23T10:40:08.856Z,27.22
2018-05-23T10:41:08.955Z,27.18
2018-05-23T10:42:08.859Z,26.73
2018-05-23T10:43:08.847Z,26.73
2018-05-23T10:44:08.844Z,26.83
2018-05-23T10:45:08.840Z,26.71
2018-05-23T10:46:08.888Z,26.85
2018-05-23T10:47:08.834Z,26.53
2018-05-23T10:48:08.837Z,26.36
2018-05-23T10:49:08.827Z,26.53
2018-05-23T10:50:08.828Z,26.71
2018-05-23T10:51:08.812Z,26.56
2018-05-23T10:52:08.973Z,26.33
2018-05-23T10:53:08.804Z,26.45
2018-05-23T10:54:08.804Z,26.33
2018-05-23T10:55:08.804Z,26.31
2018-05-23T10:56:08.795Z,26.06
2018-05-23T10:57:08.792Z,25.92
2018-05-23T10:58:08.787Z,26.01
2018-05-23T10:59:08.776Z,25.91
2018-05-23T11:00:08.866Z,25.99
2018-05-23T11:01:08.762Z,26.13
2018-05-23T11:02:08.760Z,26.08
2018-05-23T11:03:08.756Z,26.18
2018-05-23T11:04:08.754Z,26.16
2018-05-23T11:05:08.742Z,26.10
2018-05-23T11:06:08.735Z,25.96
2018-05-23T11:07:08.729Z,26.10
2018-05-23T11:08:08.723Z,25.62
2018-05-23T11:09:08.717Z,25.40
2018-05-23T11:10:08.710Z,25.43
2018-05-23T11:11:08.712Z,25.40
2018-05-23T11:12:08.705Z,25.68
2018-05-23T11:13:08.692Z,25.81
2018-05-23T11:14:08.684Z,25.81
2018-05-23T11:15:08.680Z,25.74
2018-05-23T11:16:08.678Z,25.59
2018-05-23T11:17:08.664Z,25.67
2018-05-23T11:18:08.657Z,25.92
2018-05-23T11:19:08.657Z,25.89
2018-05-23T11:20:08.643Z,26.03
2018-05-23T11:21:08.635Z,26.10
2018-05-23T11:22:08.636Z,25.88
2018-05-23T11:23:08.622Z,25.76
2018-05-23T11:24:08.614Z,25.86
2018-05-23T11:25:08.607Z,25.73
2018-05-23T11:26:08.601Z,25.51
2018-05-23T11:27:08.594Z,25.58
2018-05-23T11:28:08.588Z,25.54
2018-05-23T11:29:08.578Z,25.39
2018-05-23T11:30:08.568Z,25.62
2018-05-23T11:31:08.561Z,25.55
2018-05-23T11:32:08.563Z,25.56
2018-05-23T11:33:08.547Z,25.74
2018-05-23T11:34:08.539Z,25.93
2018-05-23T11:35:08.530Z,25.98
2018-05-23T11:36:08.533Z,25.76
2018-05-23T11:37:08.518Z,25.66
2018-05-23T11:38:08.508Z,25.62
2018-05-23T11:39:08.499Z,25.70
2018-05-23T11:40:08.496Z,25.66
2018-05-23T11:41:08.492Z,25.36
2018-05-23T11:42:08.477Z,25.44
2018-05-23T11:43:08.468Z,25.11
2018-05-23T11:44:08.459Z,25.15
2018-05-23T11:45:08.454Z,25.40
2018-05-23T11:46:08.452Z,25.40
2018-05-23T11:47:08.443Z,25.39
2018-05-23T11:48:08.434Z,25.31
2018-05-23T11:49:08.421Z,25.09
2018-05-23T11:50:08.411Z,25.25
2018-05-23T11:51:08.405Z,25.40
2018-05-23T11:52:08.431Z,25.24
2018-05-23T11:53:08.387Z,25.44
2018-05-23T11:54:08.380Z,25.41
2018-05-23T11:55:08.369Z,25.24
2018-05-23T11:56:08.366Z,25.26
2018-05-23T11:57:08.357Z,25.19
2018-05-23T11:58:08.345Z,25.16
2018-05-23T11:59:08.339Z,25.18
2018-05-23T12:00:08.327Z,25.29
2018-05-23T12:01:08.318Z,25.33
2018-05-23T12:02:08.470Z,25.21
2018-05-23T12:03:08.301Z,25.26
2018-05-23T12:04:08.293Z,25.21
2018-05-23T12:05:08.292Z,25.03
2018-05-23T12:06:08.282Z,24.66
2018-05-23T12:07:08.273Z,24.77
2018-05-23T12:08:08.273Z,25.03
2018-05-23T12:09:08.256Z,25.01
2018-05-23T12:10:08.251Z,25.01
2018-05-23T12:11:08.233Z,25.00
2018-05-23T12:12:08.223Z,25.21
2018-05-23T12:13:08.215Z,25.40
2018-05-23T12:14:08.212Z,25.15
2018-05-23T12:15:08.210Z,25.31
2018-05-23T12:16:08.190Z,25.24
2018-05-23T12:17:08.180Z,25.34
2018-05-23T12:18:08.181Z,25.49
2018-05-23T12:19:08.169Z,25.44
2018-05-23T12:20:08.163Z,25.55
2018-05-23T12:21:08.148Z,25.55
2018-05-23T12:22:08.140Z,25.40
2018-05-23T12:23:08.132Z,25.22
2018-05-23T12:24:08.132Z,25.33
2018-05-23T12:25:08.115Z,25.29
2018-05-23T12:26:08.112Z,25.19
2018-05-23T12:27:08.095Z,24.97
2018-05-23T12:28:08.086Z,24.77
2018-05-23T12:29:08.083Z,24.69
2018-05-23T12:30:08.071Z,24.78
2018-05-23T12:31:08.063Z,24.78
2018-05-23T12:32:08.054Z,24.88
2018-05-23T12:33:08.055Z,24.69
2018-05-23T12:34:08.036Z,24.66
2018-05-23T12:35:08.025Z,24.68
2018-05-23T12:36:08.018Z,24.66
2018-05-23T12:37:08.014Z,24.66
2018-05-23T12:38:08.000Z,24.71
2018-05-23T12:39:07.995Z,24.81
2018-05-23T12:40:07.994Z,24.93
2018-05-23T12:41:07.975Z,25.11
2018-05-23T12:42:07.971Z,25.03
2018-05-23T12:43:07.965Z,24.55
2018-05-23T12:44:07.954Z,24.61
2018-05-23T12:45:07.940Z,24.69
2018-05-23T12:46:07.930Z,24.78
2018-05-23T12:47:07.921Z,24.71
2018-05-23T12:48:07.914Z,24.69
2018-05-23T12:49:07.905Z,24.75
2018-05-23T12:50:07.898Z,24.88
2018-05-23T12:51:07.884Z,24.96
2018-05-23T12:52:07.880Z,24.97